createdAt,value
2022-10-08T00:03:14.449Z,96114.03
2022-10-08T00:08:15.853Z,96111.75
2022-10-08T00:13:17.276Z,96107.84
2022-10-08T00:18:19.908Z,96112.81
2022-10-08T00:23:21.341Z,96109.28
2022-10-08T00:28:22.838Z,96107.78
2022-10-08T00:33:24.309Z,96106.38
2022-10-08T00:38:25.705Z,96108.25
2022-10-08T00:43:42.466Z,96120.13
2022-10-08T00:48:43.946Z,96108.31
2022-10-08T00:53:45.501Z,96105.84
2022-10-08T00:58:48.973Z,96099.59
2022-10-08T01:03:50.417Z,96106.97
2022-10-08T01:09:19.301Z,96090.81
2022-10-08T01:14:43.551Z,96090.72
2022-10-08T01:20:00.655Z,96081.72
2022-10-08T01:25:14.473Z,96084.19
2022-10-08T01:30:18.101Z,96080.03
2022-10-08T01:35:31.986Z,96080.88
2022-10-08T01:40:39.281Z,96067.28
2022-10-08T01:45:45.978Z,96066.81
2022-10-08T01:50:57.561Z,96063.16
2022-10-08T01:56:02.638Z,96065.50
2022-10-08T02:01:15.745Z,96059.38
2022-10-08T02:06:17.306Z,96056.78
2022-10-08T02:11:18.706Z,96050.59
2022-10-08T02:16:28.245Z,96047.69
2022-10-08T02:21:29.886Z,96060.09
2022-10-08T02:26:36.941Z,96056.28
2022-10-08T02:31:49.610Z,96050.91
2022-10-08T02:37:01.641Z,96042.88
2022-10-08T02:42:08.494Z,96049.38
2022-10-08T02:47:14.362Z,96048.53
2022-10-08T02:52:18.746Z,96054.22
2022-10-08T02:57:34.126Z,96055.63
2022-10-08T03:02:41.442Z,96061.72
2022-10-08T03:07:44.058Z,96062.69
2022-10-08T03:12:45.995Z,96050.56
2022-10-08T03:17:48.700Z,96054.19
2022-10-08T03:22:50.259Z,96052.78
2022-10-08T03:27:51.754Z,96052.47
2022-10-08T03:32:53.136Z,96059.22
2022-10-08T03:37:54.564Z,96063.06
2022-10-08T03:42:55.966Z,96065.81
2022-10-08T03:47:57.374Z,96062.41
2022-10-08T03:52:58.776Z,96070.44
2022-10-08T03:58:00.157Z,96065.41
2022-10-08T04:03:01.608Z,96066.81
2022-10-08T04:08:03.245Z,96074.38
2022-10-08T04:13:04.661Z,96078.13
2022-10-08T04:18:06.274Z,96073.81
2022-10-08T04:23:09.054Z,96082.31
2022-10-08T04:28:10.493Z,96071.56
2022-10-08T04:33:11.914Z,96073.53
2022-10-08T04:38:14.392Z,96073.78
2022-10-08T04:43:15.856Z,96070.06
2022-10-08T04:48:17.271Z,96069.19
2022-10-08T04:53:18.662Z,96067.50
2022-10-08T04:58:21.302Z,96067.72
2022-10-08T05:03:22.691Z,96079.00
2022-10-08T05:08:24.156Z,96073.31
2022-10-08T05:13:25.674Z,96083.31
2022-10-08T05:18:27.078Z,96079.97
2022-10-08T05:23:28.520Z,96084.28
2022-10-08T05:28:29.969Z,96087.66
2022-10-08T05:33:31.422Z,96083.59
2022-10-08T05:38:35.191Z,96083.59
2022-10-08T05:43:36.867Z,96086.94
2022-10-08T05:48:38.947Z,96084.41
2022-10-08T05:53:42.161Z,96076.34
2022-10-08T05:58:43.963Z,96094.88
2022-10-08T06:03:49.369Z,96093.22
2022-10-08T06:08:58.522Z,96103.66
2022-10-08T06:14:01.139Z,96099.19
2022-10-08T06:19:03.984Z,96104.63
2022-10-08T06:24:07.892Z,96112.44
2022-10-08T06:29:17.138Z,96120.09
2022-10-08T06:34:18.697Z,96111.59
2022-10-08T06:39:20.196Z,96129.16
2022-10-08T06:44:21.599Z,96132.63
2022-10-08T06:49:22.981Z,96137.38
2022-10-08T06:54:24.566Z,96138.28
2022-10-08T06:59:25.952Z,96138.63
2022-10-08T07:04:27.360Z,96136.66
2022-10-08T07:09:29.065Z,96137.28
2022-10-08T07:14:30.495Z,96152.59
2022-10-08T07:19:31.913Z,96149.25
2022-10-08T07:24:33.426Z,96144.94
2022-10-08T07:29:34.965Z,96153.94
2022-10-08T07:34:36.580Z,96161.88
2022-10-08T07:39:37.993Z,96166.75
2022-10-08T07:44:39.387Z,96169.25
2022-10-08T07:49:40.789Z,96170.22
2022-10-08T07:54:42.201Z,96168.44
2022-10-08T07:59:43.658Z,96169.50
2022-10-08T08:04:45.086Z,96163.69
2022-10-08T08:09:46.484Z,96162.22
2022-10-08T08:14:47.903Z,96165.22
2022-10-08T08:19:49.358Z,96157.19
2022-10-08T08:24:50.791Z,96154.31
2022-10-08T08:29:52.240Z,96156.91
2022-10-08T08:34:53.712Z,96158.78
2022-10-08T08:39:55.108Z,96158.69
2022-10-08T08:45:00.462Z,96150.34
2022-10-08T08:50:28.075Z,96159.06
2022-10-08T08:55:40.994Z,96160.41
2022-10-08T09:00:47.092Z,96162.75
2022-10-08T09:05:54.842Z,96160.84
2022-10-08T09:10:59.156Z,96166.81
2022-10-08T09:16:01.462Z,96169.88
2022-10-08T09:21:02.886Z,96173.78
2022-10-08T09:26:14.963Z,96180.00
2022-10-08T09:31:31.747Z,96183.56
2022-10-08T09:36:48.203Z,96197.41
2022-10-08T09:42:07.937Z,96190.00
2022-10-08T09:47:13.110Z,96190.72
2022-10-08T09:52:25.203Z,96192.38
2022-10-08T09:57:27.803Z,96187.28
2022-10-08T10:02:37.959Z,96183.50
2022-10-08T10:07:44.830Z,96182.19
2022-10-08T10:12:51.073Z,96178.25
2022-10-08T10:18:15.779Z,96174.13
2022-10-08T10:23:27.635Z,96179.47
2022-10-08T10:28:29.034Z,96171.81
2022-10-08T10:33:34.084Z,96172.81
2022-10-08T10:38:43.310Z,96180.78
2022-10-08T10:43:52.647Z,96177.97
2022-10-08T10:48:56.003Z,96173.47
2022-10-08T10:54:16.677Z,96168.31
2022-10-08T10:59:34.021Z,96174.63
2022-10-08T11:04:41.139Z,96174.47
2022-10-08T11:10:07.776Z,96180.81
2022-10-08T11:15:12.174Z,96180.00
2022-10-08T11:20:29.272Z,96175.16
2022-10-08T11:26:09.868Z,96169.81
2022-10-08T11:31:33.130Z,96176.16
2022-10-08T11:36:46.118Z,96168.28
2022-10-08T11:41:53.608Z,96172.47
2022-10-08T11:47:33.816Z,96174.94
2022-10-08T11:52:35.310Z,96169.78
2022-10-08T11:58:06.171Z,96167.28
2022-10-08T12:02:59.490Z,96166.13
2022-10-08T12:08:01.306Z,96163.09
2022-10-08T12:13:27.809Z,96166.41
2022-10-08T12:18:30.955Z,96169.69
2022-10-08T12:23:32.313Z,96173.31
2022-10-08T12:28:33.784Z,96171.38
2022-10-08T12:33:35.247Z,96167.34
2022-10-08T12:39:00.984Z,96162.66
2022-10-08T12:44:09.517Z,96162.81
2022-10-08T12:49:38.287Z,96166.00
2022-10-08T12:54:47.344Z,96164.28
2022-10-08T12:59:49.747Z,96160.19
2022-10-08T13:04:51.204Z,96164.53
2022-10-08T13:10:01.757Z,96171.19
2022-10-08T13:15:05.985Z,96168.75
2022-10-08T13:20:10.146Z,96172.75
2022-10-08T13:25:37.588Z,96174.84
2022-10-08T13:30:40.131Z,96168.19
2022-10-08T13:35:42.652Z,96173.16
2022-10-08T13:40:50.509Z,96162.81
2022-10-08T13:45:51.949Z,96172.84
2022-10-08T13:50:53.626Z,96182.97
2022-10-08T13:55:55.172Z,96172.16
2022-10-08T14:00:56.669Z,96172.38
2022-10-08T14:05:58.201Z,96181.00
2022-10-08T14:11:00.016Z,96179.88
2022-10-08T14:16:01.496Z,96173.97
2022-10-08T14:21:03.844Z,96177.69
2022-10-08T14:26:05.362Z,96177.88
2022-10-08T14:31:07.039Z,96177.69
2022-10-08T14:36:18.128Z,96172.84
2022-10-08T14:41:19.520Z,96184.47
2022-10-08T14:46:20.939Z,96180.28
2022-10-08T14:51:22.373Z,96180.97
2022-10-08T14:56:23.769Z,96183.56
2022-10-08T15:01:25.360Z,96184.06
2022-10-08T15:06:28.048Z,96198.97
2022-10-08T15:11:29.531Z,96203.75
2022-10-08T15:16:31.329Z,96194.03
2022-10-08T15:21:33.545Z,96192.47
2022-10-08T15:26:35.326Z,96200.78
2022-10-08T15:31:36.770Z,96190.00
2022-10-08T15:36:38.266Z,96194.91
2022-10-08T15:41:41.412Z,96201.59
2022-10-08T15:46:42.822Z,96204.69
2022-10-08T15:51:44.256Z,96214.84
2022-10-08T15:56:45.646Z,96215.41
2022-10-08T16:01:47.082Z,96226.63
2022-10-08T16:06:48.524Z,96229.75
2022-10-08T16:11:51.082Z,96232.16
2022-10-08T16:16:53.494Z,96238.97
2022-10-08T16:21:57.092Z,96251.44
2022-10-08T16:26:58.508Z,96254.00
2022-10-08T16:31:59.938Z,96255.00
2022-10-08T16:37:01.602Z,96252.78
2022-10-08T16:42:03.242Z,96253.63
2022-10-08T16:47:04.872Z,96262.16
2022-10-08T16:52:06.260Z,96278.34
2022-10-08T16:57:07.772Z,96275.69
2022-10-08T17:02:10.301Z,96285.19
2022-10-08T17:07:11.732Z,96291.75
2022-10-08T17:12:13.163Z,96296.22
2022-10-08T17:17:14.642Z,96295.81
2022-10-08T17:22:16.059Z,96304.31
2022-10-08T17:27:17.492Z,96303.19
2022-10-08T17:32:18.897Z,96315.47
2022-10-08T17:37:20.301Z,96320.31
2022-10-08T17:42:21.676Z,96331.06
2022-10-08T17:47:28.353Z,96338.31
2022-10-08T17:52:30.583Z,96348.03
2022-10-08T17:57:31.983Z,96349.47
2022-10-08T18:02:33.430Z,96347.56
2022-10-08T18:07:34.882Z,96352.16
2022-10-08T18:12:36.264Z,96353.97
2022-10-08T18:17:37.685Z,96352.41
2022-10-08T18:22:39.167Z,96354.25
2022-10-08T18:27:40.567Z,96356.88
2022-10-08T18:32:42.401Z,96362.88
2022-10-08T18:37:43.793Z,96362.47
2022-10-08T18:42:45.505Z,96363.69
2022-10-08T18:47:50.186Z,96376.25
2022-10-08T18:52:51.646Z,96372.78
2022-10-08T18:57:53.683Z,96377.34
2022-10-08T19:02:55.921Z,96369.34
2022-10-08T19:07:57.371Z,96378.97
2022-10-08T19:12:58.780Z,96379.66
2022-10-08T19:18:00.204Z,96387.75
2022-10-08T19:23:02.029Z,96398.59
2022-10-08T19:28:03.814Z,96397.63
2022-10-08T19:33:05.259Z,96398.03
2022-10-08T19:38:06.665Z,96392.31
2022-10-08T19:43:08.078Z,96400.91
2022-10-08T19:48:11.212Z,96403.09
2022-10-08T19:53:12.786Z,96408.94
2022-10-08T19:58:14.207Z,96422.44
2022-10-08T20:03:15.625Z,96423.44
2022-10-08T20:08:17.096Z,96412.69
2022-10-08T20:13:18.504Z,96416.19
2022-10-08T20:18:19.910Z,96408.53
2022-10-08T20:23:21.310Z,96416.88
2022-10-08T20:28:22.758Z,96416.19
2022-10-08T20:33:24.191Z,96421.47
2022-10-08T20:38:29.246Z,96421.22
2022-10-08T20:43:32.423Z,96424.28
2022-10-08T20:48:36.026Z,96437.00
2022-10-08T20:53:37.732Z,96422.69
2022-10-08T20:58:39.189Z,96427.81
2022-10-08T21:03:42.031Z,96425.44
2022-10-08T21:08:46.178Z,96423.22
2022-10-08T21:13:48.038Z,96426.31
2022-10-08T21:18:54.867Z,96422.81
2022-10-08T21:23:57.321Z,96420.91
2022-10-08T21:29:00.835Z,96425.34
2022-10-08T21:34:02.570Z,96430.78
2022-10-08T21:39:06.146Z,96427.56
2022-10-08T21:44:08.741Z,96422.81
2022-10-08T21:49:28.057Z,96420.06
2022-10-08T21:54:29.535Z,96426.22
2022-10-08T21:59:30.945Z,96418.06
2022-10-08T22:04:32.407Z,96418.19
2022-10-08T22:09:33.878Z,96407.75
2022-10-08T22:14:35.402Z,96412.63
2022-10-08T22:19:36.813Z,96410.44
2022-10-08T22:24:38.212Z,96406.94
2022-10-08T22:29:39.617Z,96398.59
2022-10-08T22:34:41.036Z,96401.69
2022-10-08T22:39:42.455Z,96388.06
2022-10-08T22:44:43.905Z,96389.72
2022-10-08T22:49:45.294Z,96385.72
2022-10-08T22:54:46.703Z,96382.47
2022-10-08T22:59:48.168Z,96380.09
2022-10-08T23:04:49.560Z,96375.47
2022-10-08T23:09:50.967Z,96370.44
2022-10-08T23:14:52.415Z,96368.38
2022-10-08T23:19:53.803Z,96360.41
2022-10-08T23:24:55.259Z,96357.06
2022-10-08T23:29:56.672Z,96350.22
2022-10-08T23:34:58.058Z,96349.25
2022-10-08T23:39:59.459Z,96348.69
2022-10-08T23:45:00.848Z,96338.09
2022-10-08T23:50:02.242Z,96338.94
2022-10-08T23:55:03.865Z,96329.59
